Time;durP1;ratioP1;P1;durP2;ratioP2;P2;SDS_P1;SDS_P2;PMS_P1;PMS_P2;Temp;Humidity;BMP_temperature;BMP_pressure;BME280_temperature;BME280_humidity;BME280_pressure;Samples;Min_cycle;Max_cycle;Signal;HPM_P1;HPM_P2
2021/11/02 00:01:35;;;;;;;2.00;1.80;;;;;;;;;;5098015;28;20575;-83
2021/11/02 00:04:05;;;;;;;3.03;1.90;;;;;;;;;;5098136;28;20245;-82
2021/11/02 00:06:33;;;;;;;2.38;2.17;;;;;;;;;;5098159;28;20195;-83
2021/11/02 00:09:01;;;;;;;2.90;1.60;;;;;;;;;;5097821;28;20227;-82
2021/11/02 00:11:29;;;;;;;1.73;1.58;;;;;;;;;;5112223;28;20324;-82
2021/11/02 00:14:07;;;;;;;2.10;1.90;;;;;;;;;;5108372;28;20667;-81
2021/11/02 00:16:35;;;;;;;1.70;1.60;;;;;;;;;;5107823;28;20196;-81
2021/11/02 00:19:06;;;;;;;2.03;1.83;;;;;;;;;;5107227;28;20212;-81
2021/11/02 00:21:37;;;;;;;1.70;1.55;;;;;;;;;;5107466;28;20192;-81
2021/11/02 00:24:13;;;;;;;3.08;2.35;;;;;;;;;;5106489;28;20254;-80
2021/11/02 00:26:41;;;;;;;3.25;1.40;;;;;;;;;;5106195;28;20184;-80
2021/11/02 00:29:09;;;;;;;1.42;1.33;;;;;;;;;;5106487;28;20287;-81
2021/11/02 00:31:37;;;;;;;2.50;1.70;;;;;;;;;;5117650;28;20202;-81
2021/11/02 00:34:06;;;;;;;3.03;2.83;;;;;;;;;;5126185;28;20184;-81
2021/11/02 00:36:33;;;;;;;3.70;3.40;;;;;;;;;;5125641;28;20200;-81
2021/11/02 00:39:01;;;;;;;5.65;3.20;;;;;;;;;;5125705;28;20292;-80
2021/11/02 00:41:28;;;;;;;4.05;3.45;;;;;;;;;;5125409;28;20195;-80
2021/11/02 00:43:56;;;;;;;5.18;3.80;;;;;;;;;;5125648;28;20210;-81
2021/11/02 00:46:31;;;;;;;2.83;2.63;;;;;;;;;;5125456;28;20221;-81
2021/11/02 00:48:59;;;;;;;4.85;3.55;;;;;;;;;;5109021;22;20663;-80
2021/11/02 00:51:28;;;;;;;5.05;4.07;;;;;;;;;;5073257;28;20201;-81
2021/11/02 00:53:56;;;;;;;2.50;2.30;;;;;;;;;;5072150;28;20197;-82
2021/11/02 00:56:24;;;;;;;3.05;2.85;;;;;;;;;;5073576;28;20212;-82
2021/11/02 00:58:51;;;;;;;2.78;2.58;;;;;;;;;;5073698;28;20231;-82
2021/11/02 01:01:19;;;;;;;2.30;2.17;;;;;;;;;;5074245;28;20246;-81
2021/11/02 01:03:46;;;;;;;3.28;2.67;;;;;;;;;;5073082;28;20204;-81
2021/11/02 01:06:14;;;;;;;3.85;2.90;;;;;;;;;;5073601;28;20867;-81
2021/11/02 01:08:43;;;;;;;2.47;2.28;;;;;;;;;;5073336;28;20224;-83
2021/11/02 01:11:10;;;;;;;3.05;2.85;;;;;;;;;;5073583;28;20721;-83
2021/11/02 01:13:38;;;;;;;2.03;1.92;;;;;;;;;;5073429;28;20181;-81
2021/11/02 01:16:06;;;;;;;2.78;2.35;;;;;;;;;;5073243;28;20689;-81
2021/11/02 01:18:33;;;;;;;2.60;2.40;;;;;;;;;;5072441;28;20228;-81
2021/11/02 01:21:02;;;;;;;2.22;2.03;;;;;;;;;;5072720;28;20215;-81
2021/11/02 01:23:32;;;;;;;2.50;2.30;;;;;;;;;;5073417;28;20205;-81
2021/11/02 01:26:02;;;;;;;4.35;3.90;;;;;;;;;;5073263;28;20282;-81
2021/11/02 01:28:29;;;;;;;2.85;2.65;;;;;;;;;;5071947;28;20213;-80
2021/11/02 01:30:57;;;;;;;3.30;3.00;;;;;;;;;;5074846;28;20228;-80
2021/11/02 01:33:25;;;;;;;2.90;2.67;;;;;;;;;;5075364;28;20207;-80
2021/11/02 01:35:53;;;;;;;2.67;2.22;;;;;;;;;;5075581;28;20185;-80
2021/11/02 01:38:23;;;;;;;3.28;3.03;;;;;;;;;;5074965;28;20225;-82
2021/11/02 01:40:53;;;;;;;2.58;2.05;;;;;;;;;;5075279;28;20702;-82
2021/11/02 01:43:23;;;;;;;2.42;2.22;;;;;;;;;;5075943;28;20185;-80
2021/11/02 01:45:50;;;;;;;1.92;1.83;;;;;;;;;;5075166;28;20184;-81
2021/11/02 01:48:24;;;;;;;2.55;2.22;;;;;;;;;;5074998;28;20224;-81
2021/11/02 01:50:53;;;;;;;3.22;2.40;;;;;;;;;;5075609;28;20672;-81
2021/11/02 01:53:20;;;;;;;2.50;2.30;;;;;;;;;;5075475;28;20193;-81
2021/11/02 01:55:48;;;;;;;3.92;3.53;;;;;;;;;;5075003;28;20197;-81
2021/11/02 01:58:16;;;;;;;3.92;3.53;;;;;;;;;;5075072;28;20221;-81
2021/11/02 02:00:51;;;;;;;3.88;3.55;;;;;;;;;;5075050;28;20193;-81
2021/11/02 02:03:31;;;;;;;3.50;3.20;;;;;;;;;;5074573;28;20569;-81
2021/11/02 02:06:09;;;;;;;3.88;3.63;;;;;;;;;;5077201;28;20619;-81
2021/11/02 02:08:49;;;;;;;3.95;3.65;;;;;;;;;;5078970;28;20216;-81
2021/11/02 02:11:23;;;;;;;3.38;3.08;;;;;;;;;;5078700;28;20221;-81
2021/11/02 02:13:54;;;;;;;3.40;3.10;;;;;;;;;;5078832;28;20288;-81
2021/11/02 02:16:30;;;;;;;3.22;2.92;;;;;;;;;;5078704;28;20185;-81
2021/11/02 02:19:02;;;;;;;3.97;3.50;;;;;;;;;;5078461;28;20598;-80
2021/11/02 02:21:47;;;;;;;2.70;2.50;;;;;;;;;;5079067;28;20283;-81
2021/11/02 02:24:51;;;;;;;3.08;2.75;;;;;;;;;;5078292;28;20193;-81
2021/11/02 02:27:35;;;;;;;2.70;2.50;;;;;;;;;;5054188;28;20619;-81
2021/11/02 02:30:09;;;;;;;2.03;1.92;;;;;;;;;;5078006;28;20827;-81
2021/11/02 02:32:38;;;;;;;2.40;2.20;;;;;;;;;;5078486;28;20188;-81
2021/11/02 02:35:08;;;;;;;1.83;1.73;;;;;;;;;;5078069;28;20641;-81
2021/11/02 02:37:37;;;;;;;2.90;2.50;;;;;;;;;;5078014;28;20291;-81
2021/11/02 02:40:07;;;;;;;2.30;2.10;;;;;;;;;;5078504;28;20204;-81
2021/11/02 02:42:35;;;;;;;2.72;2.53;;;;;;;;;;5076342;28;20188;-81
2021/11/02 02:45:06;;;;;;;4.45;3.00;;;;;;;;;;5077199;28;20219;-81
2021/11/02 02:47:34;;;;;;;4.18;3.88;;;;;;;;;;5070323;28;20290;-80
2021/11/02 02:50:02;;;;;;;4.22;3.72;;;;;;;;;;5058194;28;20186;-81
2021/11/02 02:52:30;;;;;;;3.33;3.10;;;;;;;;;;5057654;28;20659;-81
2021/11/02 02:54:59;;;;;;;3.22;2.53;;;;;;;;;;5057848;28;20186;-81
2021/11/02 02:57:27;;;;;;;4.00;3.42;;;;;;;;;;5065520;28;20688;-81
2021/11/02 02:59:55;;;;;;;2.75;2.58;;;;;;;;;;5077816;28;20212;-81
2021/11/02 03:02:28;;;;;;;2.80;2.60;;;;;;;;;;5077466;28;20201;-81
2021/11/02 03:04:57;;;;;;;3.83;3.53;;;;;;;;;;5077566;28;20189;-81
2021/11/02 03:07:25;;;;;;;3.00;2.67;;;;;;;;;;5077463;28;20196;-81
2021/11/02 03:09:53;;;;;;;3.05;2.75;;;;;;;;;;5067793;28;20663;-81
2021/11/02 03:12:25;;;;;;;2.95;2.75;;;;;;;;;;5057160;28;20229;-81
2021/11/02 03:15:10;;;;;;;2.80;2.50;;;;;;;;;;5058719;28;20535;-81
2021/11/02 03:17:47;;;;;;;3.90;3.58;;;;;;;;;;5056991;28;20228;-81
2021/11/02 03:45:17;;;;;;;2.28;2.13;;;;;;;;;;5056052;28;20255;-81
2021/11/02 03:50:56;;;;;;;2.38;2.25;;;;;;;;;;5055044;28;20252;-81
2021/11/02 03:56:19;;;;;;;3.63;2.92;;;;;;;;;;5055235;28;20184;-81
2021/11/02 03:59:04;;;;;;;3.17;2.90;;;;;;;;;;5056485;28;20312;-81
2021/11/02 04:01:45;;;;;;;2.65;2.45;;;;;;;;;;5056200;28;20243;-81
2021/11/02 04:24:29;;;;;;;3.75;3.45;;;;;;;;;;5056313;28;20185;-81
2021/11/02 04:27:12;;;;;;;4.47;4.07;;;;;;;;;;5055554;28;20300;-81
2021/11/02 05:47:57;;;;;;;2.33;2.22;;;;;;;;;;5132773;28;20368;-84
2021/11/02 05:50:51;;;;;;;2.00;1.90;;;;;;;;;;5132812;27;20607;-84
2021/11/02 05:53:35;;;;;;;2.38;2.20;;;;;;;;;;5133071;27;20614;-84
2021/11/02 05:56:20;;;;;;;2.17;2.08;;;;;;;;;;5132904;27;20199;-84
2021/11/02 05:58:54;;;;;;;2.25;2.05;;;;;;;;;;5129171;27;20224;-83
2021/11/02 06:01:30;;;;;;;2.08;1.98;;;;;;;;;;5119148;28;20191;-84
2021/11/02 06:04:09;;;;;;;2.78;2.58;;;;;;;;;;5119307;27;20203;-83
2021/11/02 06:06:41;;;;;;;1.85;1.75;;;;;;;;;;5119587;28;20640;-83
2021/11/02 06:09:23;;;;;;;2.65;2.45;;;;;;;;;;5119165;28;20223;-83
2021/11/02 06:28:45;;;;;;;3.20;3.00;;;;;;;;;;5118709;28;20223;-82
2021/11/02 06:31:15;;;;;;;3.92;3.63;;;;;;;;;;5119454;28;20184;-83
2021/11/02 06:33:48;;;;;;;4.03;3.65;;;;;;;;;;5118467;28;20188;-83
2021/11/02 06:36:36;;;;;;;3.08;2.80;;;;;;;;;;5118276;28;20187;-83
2021/11/02 06:39:32;;;;;;;3.45;3.15;;;;;;;;;;5118353;28;20226;-83
2021/11/02 06:45:24;;;;;;;2.67;2.30;;;;;;;;;;5118446;28;20182;-82
2021/11/02 06:51:18;;;;;;;2.60;2.40;;;;;;;;;;5095397;28;20275;-80
2021/11/02 06:54:07;;;;;;;3.92;3.50;;;;;;;;;;5096820;28;20578;-83
2021/11/02 07:19:57;;;;;;;4.07;3.60;;;;;;;;;;5059064;28;20634;-83
2021/11/02 07:22:49;;;;;;;4.18;3.58;;;;;;;;;;5095929;28;20279;-83
2021/11/02 07:25:31;;;;;;;3.63;2.78;;;;;;;;;;5095794;28;20200;-82
2021/11/02 07:28:19;;;;;;;3.22;2.70;;;;;;;;;;5095140;28;20327;-82
2021/11/02 08:46:51;;;;;;;3.40;3.20;;;;;;;;;;5094619;28;20555;-81
2021/11/02 08:49:20;;;;;;;4.22;3.83;;;;;;;;;;5094024;28;20271;-83
2021/11/02 08:51:48;;;;;;;3.90;3.60;;;;;;;;;;5073511;28;20660;-81
2021/11/02 08:54:18;;;;;;;3.65;3.35;;;;;;;;;;5073617;28;20202;-82
2021/11/02 08:56:47;;;;;;;3.40;3.15;;;;;;;;;;5084899;28;20692;-83
2021/11/02 08:59:15;;;;;;;3.58;3.28;;;;;;;;;;5093302;28;20216;-82
2021/11/02 09:01:42;;;;;;;3.10;2.90;;;;;;;;;;5093066;28;20242;-82
2021/11/02 09:04:11;;;;;;;3.22;3.03;;;;;;;;;;5094076;28;20642;-81
2021/11/02 09:06:39;;;;;;;3.80;2.92;;;;;;;;;;5093920;28;20185;-82
2021/11/02 09:09:07;;;;;;;2.92;2.72;;;;;;;;;;5093978;28;20234;-82
2021/11/02 09:11:40;;;;;;;3.25;2.95;;;;;;;;;;5093834;28;20562;-84
2021/11/02 09:14:12;;;;;;;2.60;2.40;;;;;;;;;;5093703;28;20184;-82
2021/11/02 09:16:41;;;;;;;2.85;2.65;;;;;;;;;;5081472;28;20201;-84
2021/11/02 09:19:11;;;;;;;3.47;2.90;;;;;;;;;;5072882;28;20235;-84
2021/11/02 09:21:38;;;;;;;2.65;2.45;;;;;;;;;;5072969;28;20710;-85
2021/11/02 09:24:06;;;;;;;2.65;2.45;;;;;;;;;;5072771;28;20204;-83
2021/11/02 09:26:35;;;;;;;2.47;2.28;;;;;;;;;;5082281;28;20216;-84
2021/11/02 09:29:04;;;;;;;2.22;2.03;;;;;;;;;;5092064;28;20231;-84
2021/11/02 09:31:33;;;;;;;2.83;2.63;;;;;;;;;;5073300;28;20592;-84
2021/11/02 09:34:00;;;;;;;2.17;2.08;;;;;;;;;;5073426;28;20197;-84
2021/11/02 09:36:40;;;;;;;2.00;1.90;;;;;;;;;;5076682;28;20201;-84
2021/11/02 09:39:12;;;;;;;2.28;2.08;;;;;;;;;;5076603;28;20217;-84
2021/11/02 09:42:47;;;;;;;2.13;1.88;;;;;;;;;;5076591;28;20189;-84
2021/11/02 09:46:21;;;;;;;2.10;2.00;;;;;;;;;;4994415;28;20253;-85
2021/11/02 09:49:32;;;;;;;1.65;1.55;;;;;;;;;;5053976;28;20714;-85
2021/11/02 09:52:47;;;;;;;1.77;1.67;;;;;;;;;;5076218;28;20566;-84
2021/11/02 09:55:43;;;;;;;1.73;1.63;;;;;;;;;;5077330;28;20178;-85
2021/11/02 09:58:53;;;;;;;1.50;1.40;;;;;;;;;;5075282;28;20601;-84
2021/11/02 10:01:32;;;;;;;2.08;1.88;;;;;;;;;;5073548;28;20200;-84
2021/11/02 10:04:57;;;;;;;2.28;2.15;;;;;;;;;;5077537;28;20258;-82
2021/11/02 10:07:58;;;;;;;1.40;1.30;;;;;;;;;;5011042;28;20721;-86
2021/11/02 10:10:37;;;;;;;1.45;1.35;;;;;;;;;;5076359;28;20776;-83
2021/11/02 10:13:21;;;;;;;1.70;1.60;;;;;;;;;;5077434;28;20192;-83
2021/11/02 10:16:08;;;;;;;1.88;1.77;;;;;;;;;;5076591;28;20235;-83
2021/11/02 10:18:47;;;;;;;1.73;1.63;;;;;;;;;;5076280;28;20225;-85
2021/11/02 10:22:06;;;;;;;2.38;2.05;;;;;;;;;;5076824;28;20188;-84
2021/11/02 10:25:04;;;;;;;2.30;2.10;;;;;;;;;;5076186;28;20205;-84
2021/11/02 10:27:56;;;;;;;1.60;1.50;;;;;;;;;;5077146;28;20189;-82
2021/11/02 10:30:41;;;;;;;1.77;1.67;;;;;;;;;;5084396;28;20220;-85
2021/11/02 10:33:19;;;;;;;1.60;1.50;;;;;;;;;;5096272;28;20185;-85
2021/11/02 10:36:18;;;;;;;2.00;1.83;;;;;;;;;;5096030;28;20181;-84
2021/11/02 10:39:05;;;;;;;1.60;1.50;;;;;;;;;;5095732;28;20223;-84
2021/11/02 10:41:42;;;;;;;1.55;1.45;;;;;;;;;;5096288;28;20196;-87
2021/11/02 10:44:26;;;;;;;1.58;1.48;;;;;;;;;;5095571;28;20213;-85
2021/11/02 10:47:04;;;;;;;1.67;1.58;;;;;;;;;;5085419;28;20180;-82
2021/11/02 10:49:55;;;;;;;1.05;1.00;;;;;;;;;;5095082;28;20239;-82
2021/11/02 10:52:31;;;;;;;1.52;1.42;;;;;;;;;;5095140;28;20196;-83
2021/11/02 10:55:25;;;;;;;1.25;1.15;;;;;;;;;;5095145;28;20176;-85
2021/11/02 10:58:31;;;;;;;0.93;0.70;;;;;;;;;;5092218;28;20666;-85
2021/11/02 11:01:04;;;;;;;0.90;0.90;;;;;;;;;;5095164;28;20192;-85
2021/11/02 11:03:34;;;;;;;1.00;1.00;;;;;;;;;;5094557;28;20199;-85
2021/11/02 11:06:04;;;;;;;1.48;1.00;;;;;;;;;;5094914;28;20196;-86
2021/11/02 11:08:35;;;;;;;1.05;1.05;;;;;;;;;;5095075;28;20710;-85
2021/11/02 11:11:10;;;;;;;0.90;0.90;;;;;;;;;;5094656;28;20690;-85
2021/11/02 11:13:41;;;;;;;1.08;1.08;;;;;;;;;;5095108;28;20176;-87
2021/11/02 11:16:24;;;;;;;1.05;1.05;;;;;;;;;;5095082;28;20203;-85
2021/11/02 11:18:57;;;;;;;0.90;0.90;;;;;;;;;;5080628;28;20212;-85
2021/11/02 11:21:27;;;;;;;0.90;0.90;;;;;;;;;;5095791;28;20197;-87
2021/11/02 11:24:06;;;;;;;0.60;0.60;;;;;;;;;;5096382;28;20557;-85
2021/11/02 11:26:35;;;;;;;8.45;1.58;;;;;;;;;;5096918;28;20253;-85
2021/11/02 11:29:06;;;;;;;1.40;1.30;;;;;;;;;;5096471;28;20227;-87
2021/11/02 11:31:35;;;;;;;0.90;0.90;;;;;;;;;;5096269;28;20568;-85
2021/11/02 11:34:04;;;;;;;0.80;0.80;;;;;;;;;;5096249;28;20228;-86
2021/11/02 11:36:34;;;;;;;3.70;1.80;;;;;;;;;;5099126;28;20211;-86
2021/11/02 11:39:08;;;;;;;1.27;1.10;;;;;;;;;;5100797;28;20219;-83
2021/11/02 11:41:37;;;;;;;0.70;0.70;;;;;;;;;;5100384;28;20199;-84
2021/11/02 11:44:06;;;;;;;0.90;0.90;;;;;;;;;;5098308;28;20206;-84
2021/11/02 11:46:35;;;;;;;0.73;0.73;;;;;;;;;;5097776;28;20211;-85
2021/11/02 11:49:02;;;;;;;1.33;0.80;;;;;;;;;;5098143;28;20701;-83
2021/11/02 11:51:32;;;;;;;0.52;0.52;;;;;;;;;;5099715;28;20204;-85
2021/11/02 11:54:02;;;;;;;0.73;0.70;;;;;;;;;;5099514;28;20192;-83
2021/11/02 11:56:37;;;;;;;0.68;0.68;;;;;;;;;;5098535;28;20634;-83
2021/11/02 11:59:06;;;;;;;28.98;6.40;;;;;;;;;;5099295;28;20223;-82
2021/11/02 12:01:57;;;;;;;10.10;2.67;;;;;;;;;;5099090;28;20181;-83
2021/11/02 12:04:37;;;;;;;2.67;1.08;;;;;;;;;;5098027;28;20180;-83
2021/11/02 12:07:28;;;;;;;1.05;0.82;;;;;;;;;;5097966;28;20204;-82
2021/11/02 12:09:56;;;;;;;0.82;0.82;;;;;;;;;;5099082;28;20577;-84
2021/11/02 12:12:25;;;;;;;1.05;0.95;;;;;;;;;;5097115;28;20209;-84
2021/11/02 12:14:55;;;;;;;0.95;0.68;;;;;;;;;;5095161;28;20287;-83
2021/11/02 12:17:25;;;;;;;0.68;0.68;;;;;;;;;;5098674;28;20180;-83
2021/11/02 12:20:07;;;;;;;0.70;0.70;;;;;;;;;;5099854;28;20220;-85
2021/11/02 12:22:47;;;;;;;0.55;0.55;;;;;;;;;;5096558;28;20181;-85
2021/11/02 12:25:26;;;;;;;0.80;0.80;;;;;;;;;;5097579;28;20283;-84
2021/11/02 12:27:56;;;;;;;0.80;0.80;;;;;;;;;;5097376;28;20226;-84
2021/11/02 12:30:24;;;;;;;0.75;0.75;;;;;;;;;;5100129;28;20204;-84
2021/11/02 12:32:56;;;;;;;0.52;0.52;;;;;;;;;;5097554;28;20192;-84
2021/11/02 12:35:48;;;;;;;0.65;0.65;;;;;;;;;;5095918;28;20545;-84
2021/11/02 12:38:16;;;;;;;0.47;0.47;;;;;;;;;;5095113;28;20306;-84
2021/11/02 12:40:45;;;;;;;0.50;0.50;;;;;;;;;;5096632;28;20569;-83
2021/11/02 12:43:25;;;;;;;0.40;0.40;;;;;;;;;;5095828;28;20226;-83
2021/11/02 12:45:55;;;;;;;0.40;0.40;;;;;;;;;;5095925;28;20195;-84
2021/11/02 12:48:23;;;;;;;0.45;0.45;;;;;;;;;;5095247;28;20224;-82
2021/11/02 12:50:52;;;;;;;0.55;0.50;;;;;;;;;;5094367;28;20222;-84
2021/11/02 12:53:21;;;;;;;0.68;0.68;;;;;;;;;;5095105;28;20662;-82
2021/11/02 12:55:49;;;;;;;0.50;0.50;;;;;;;;;;5094227;28;20210;-84
2021/11/02 12:58:20;;;;;;;0.80;0.80;;;;;;;;;;5096418;28;20216;-82
2021/11/02 13:00:51;;;;;;;0.95;0.80;;;;;;;;;;5095694;28;20208;-83
2021/11/02 13:03:26;;;;;;;0.73;0.73;;;;;;;;;;5097683;28;20657;-83
2021/11/02 13:05:59;;;;;;;0.60;0.60;;;;;;;;;;5096748;28;20215;-83
2021/11/02 13:09:00;;;;;;;1.33;0.73;;;;;;;;;;5095705;28;20220;-84
2021/11/02 13:11:29;;;;;;;0.98;0.90;;;;;;;;;;5098275;28;20660;-83
2021/11/02 13:14:08;;;;;;;0.75;0.55;;;;;;;;;;5100354;28;20572;-83
2021/11/02 13:16:59;;;;;;;3.13;0.73;;;;;;;;;;5099602;28;20200;-82
2021/11/02 13:19:37;;;;;;;0.50;0.50;;;;;;;;;;5099451;28;20592;-83
2021/11/02 13:22:15;;;;;;;0.60;0.60;;;;;;;;;;5100004;28;20192;-82
2021/11/02 13:24:55;;;;;;;0.68;0.60;;;;;;;;;;5100236;28;20548;-83
2021/11/02 13:27:32;;;;;;;0.50;0.50;;;;;;;;;;5099733;28;20301;-83
2021/11/02 13:30:23;;;;;;;1.88;0.88;;;;;;;;;;5099606;28;20571;-83
2021/11/02 13:33:02;;;;;;;0.93;0.82;;;;;;;;;;5098976;28;20224;-83
2021/11/02 13:35:51;;;;;;;0.93;0.90;;;;;;;;;;5098318;28;20188;-82
2021/11/02 13:38:32;;;;;;;0.57;0.57;;;;;;;;;;5098568;28;20256;-83
2021/11/02 13:41:10;;;;;;;0.50;0.50;;;;;;;;;;5099610;28;20200;-83
2021/11/02 13:43:39;;;;;;;0.45;0.45;;;;;;;;;;5098279;28;20552;-83
2021/11/02 13:46:09;;;;;;;0.70;0.70;;;;;;;;;;5098158;28;20193;-82
2021/11/02 13:48:38;;;;;;;0.52;0.52;;;;;;;;;;5097300;28;20235;-82
2021/11/02 13:51:07;;;;;;;0.50;0.50;;;;;;;;;;5097118;28;20223;-83
2021/11/02 13:53:35;;;;;;;0.63;0.63;;;;;;;;;;5096778;28;20184;-83
2021/11/02 13:56:04;;;;;;;0.45;0.45;;;;;;;;;;5098079;28;20189;-82
2021/11/02 13:58:33;;;;;;;0.93;0.93;;;;;;;;;;5097728;28;20212;-82
2021/11/02 14:01:00;;;;;;;0.60;0.60;;;;;;;;;;5097610;28;20196;-83
2021/11/02 14:03:32;;;;;;;0.68;0.68;;;;;;;;;;5097311;28;20181;-83
2021/11/02 14:06:02;;;;;;;0.60;0.60;;;;;;;;;;5096924;28;20189;-83
2021/11/02 14:08:30;;;;;;;0.50;0.50;;;;;;;;;;5097695;28;20216;-84
2021/11/02 14:11:01;;;;;;;0.60;0.60;;;;;;;;;;5097854;28;20250;-82
2021/11/02 14:13:42;;;;;;;3.67;1.27;;;;;;;;;;5097162;28;20670;-82
2021/11/02 14:16:09;;;;;;;0.80;0.80;;;;;;;;;;5097414;28;20196;-83
2021/11/02 14:18:39;;;;;;;0.65;0.60;;;;;;;;;;5097339;28;20248;-84
2021/11/02 14:21:10;;;;;;;0.47;0.47;;;;;;;;;;5097058;28;20185;-83
2021/11/02 14:23:41;;;;;;;0.52;0.52;;;;;;;;;;5096708;28;20184;-82
2021/11/02 14:26:25;;;;;;;0.75;0.63;;;;;;;;;;5097193;28;20522;-82
2021/11/02 14:28:55;;;;;;;0.68;0.68;;;;;;;;;;5097898;28;20224;-83
2021/11/02 14:31:47;;;;;;;2.78;1.35;;;;;;;;;;5097791;28;20799;-85
2021/11/02 14:34:47;;;;;;;0.60;0.60;;;;;;;;;;5098025;28;20562;-83
2021/11/02 14:37:19;;;;;;;0.57;0.57;;;;;;;;;;5097863;28;20197;-83
2021/11/02 14:40:02;;;;;;;0.90;0.60;;;;;;;;;;5097473;28;20225;-84
2021/11/02 14:42:46;;;;;;;0.57;0.57;;;;;;;;;;5096205;28;20202;-83
2021/11/02 14:45:15;;;;;;;0.90;0.82;;;;;;;;;;5094678;28;20211;-83
2021/11/02 14:47:43;;;;;;;15.73;4.53;;;;;;;;;;5095936;28;20195;-82
2021/11/02 14:50:38;;;;;;;11.90;4.32;;;;;;;;;;5095999;28;20200;-83
2021/11/02 14:53:30;;;;;;;11.25;3.50;;;;;;;;;;5095594;28;20220;-83
2021/11/02 14:55:59;;;;;;;2.72;1.02;;;;;;;;;;5095963;28;20199;-82
2021/11/02 14:58:50;;;;;;;2.13;1.00;;;;;;;;;;5096062;28;20216;-83
2021/11/02 15:01:23;;;;;;;1.00;1.00;;;;;;;;;;5097350;28;20181;-81
2021/11/02 15:03:59;;;;;;;1.23;0.85;;;;;;;;;;5096786;28;20621;-83
2021/11/02 15:06:37;;;;;;;1.33;1.33;;;;;;;;;;5096882;28;20184;-81
2021/11/02 15:09:08;;;;;;;0.80;0.80;;;;;;;;;;5097021;28;20220;-82
2021/11/02 15:11:37;;;;;;;1.00;0.90;;;;;;;;;;5096418;28;20191;-82
2021/11/02 15:14:07;;;;;;;1.50;1.15;;;;;;;;;;5096117;28;20231;-82
2021/11/02 15:16:43;;;;;;;1.00;0.93;;;;;;;;;;5095891;28;20211;-83
2021/11/02 15:19:11;;;;;;;0.90;0.90;;;;;;;;;;5095653;28;20223;-84
2021/11/02 15:21:40;;;;;;;0.90;0.90;;;;;;;;;;5095593;28;20191;-83
2021/11/02 15:24:23;;;;;;;1.10;1.00;;;;;;;;;;5095569;28;20189;-82
2021/11/02 15:26:55;;;;;;;1.75;0.90;;;;;;;;;;5095185;28;20187;-82
2021/11/02 15:29:26;;;;;;;1.10;1.00;;;;;;;;;;5095251;28;20216;-83
2021/11/02 15:32:13;;;;;;;2.05;1.20;;;;;;;;;;5094903;28;20195;-81
2021/11/02 15:34:43;;;;;;;1.20;1.20;;;;;;;;;;5095759;28;20571;-82
2021/11/02 15:37:15;;;;;;;1.27;1.17;;;;;;;;;;5096276;28;20568;-84
2021/11/02 15:39:44;;;;;;;1.20;1.20;;;;;;;;;;5095624;28;20716;-84
2021/11/02 15:42:24;;;;;;;0.90;0.90;;;;;;;;;;5095865;28;20203;-83
2021/11/02 15:44:55;;;;;;;0.98;0.98;;;;;;;;;;5095698;28;20191;-83
2021/11/02 15:47:26;;;;;;;1.17;1.08;;;;;;;;;;5096083;28;20275;-83
2021/11/02 15:50:02;;;;;;;1.10;1.00;;;;;;;;;;5096381;28;20254;-82
2021/11/02 15:52:32;;;;;;;1.00;1.00;;;;;;;;;;5096474;28;20180;-82
2021/11/02 15:55:11;;;;;;;1.42;1.20;;;;;;;;;;5095274;28;20179;-82
2021/11/02 15:57:44;;;;;;;1.50;1.40;;;;;;;;;;5094519;28;20635;-83
2021/11/02 16:00:14;;;;;;;1.58;1.40;;;;;;;;;;5094414;28;20184;-82
2021/11/02 16:02:45;;;;;;;1.25;1.23;;;;;;;;;;5094851;28;20236;-82
2021/11/02 16:05:18;;;;;;;1.17;1.17;;;;;;;;;;5094454;28;20294;-84
2021/11/02 16:07:45;;;;;;;1.42;1.33;;;;;;;;;;5094912;28;20188;-82
2021/11/02 16:10:17;;;;;;;1.60;1.50;;;;;;;;;;5094430;28;20192;-81
2021/11/02 16:12:48;;;;;;;1.10;1.10;;;;;;;;;;5094565;28;20558;-83
2021/11/02 16:15:18;;;;;;;1.15;1.15;;;;;;;;;;5093712;28;20700;-82
2021/11/02 16:17:48;;;;;;;1.23;1.20;;;;;;;;;;5093859;28;20184;-82
2021/11/02 16:20:27;;;;;;;1.38;1.33;;;;;;;;;;5094607;28;20294;-82
2021/11/02 16:22:59;;;;;;;1.25;1.15;;;;;;;;;;5086466;28;20199;-82
2021/11/02 16:25:29;;;;;;;1.50;1.40;;;;;;;;;;5073217;28;20185;-81
2021/11/02 16:28:02;;;;;;;1.23;1.13;;;;;;;;;;5072885;28;20593;-82
2021/11/02 16:30:33;;;;;;;1.00;1.00;;;;;;;;;;5077721;28;20213;-82
2021/11/02 16:33:00;;;;;;;1.17;1.17;;;;;;;;;;5089661;28;20215;-83
2021/11/02 16:35:42;;;;;;;1.30;1.30;;;;;;;;;;5089691;28;20192;-83
2021/11/02 16:38:25;;;;;;;1.10;1.10;;;;;;;;;;5089927;28;20212;-83
2021/11/02 16:40:59;;;;;;;1.33;1.20;;;;;;;;;;5087590;28;20281;-84
2021/11/02 16:43:37;;;;;;;1.50;1.40;;;;;;;;;;5080976;28;20180;-83
2021/11/02 16:46:08;;;;;;;1.98;1.80;;;;;;;;;;5080904;28;20182;-84
2021/11/02 16:48:43;;;;;;;1.80;1.70;;;;;;;;;;5082266;28;20239;-84
2021/11/02 16:51:12;;;;;;;1.70;1.60;;;;;;;;;;5082801;28;20227;-83
2021/11/02 16:53:40;;;;;;;1.50;1.38;;;;;;;;;;5081332;28;20201;-83
2021/11/02 16:56:23;;;;;;;1.90;1.50;;;;;;;;;;5082507;28;20743;-83
2021/11/02 16:58:53;;;;;;;1.92;1.70;;;;;;;;;;5081645;28;20227;-83
2021/11/02 17:01:27;;;;;;;1.90;1.80;;;;;;;;;;5083288;28;20710;-83
2021/11/02 17:03:58;;;;;;;1.60;1.50;;;;;;;;;;5084161;28;20196;-83
2021/11/02 17:06:32;;;;;;;1.65;1.55;;;;;;;;;;5087775;28;20269;-82
2021/11/02 17:09:16;;;;;;;1.63;1.45;;;;;;;;;;5087006;28;20220;-83
2021/11/02 17:11:58;;;;;;;2.05;1.85;;;;;;;;;;5083699;28;20207;-82
2021/11/02 17:14:27;;;;;;;1.83;1.73;;;;;;;;;;5084622;28;20718;-82
2021/11/02 17:16:57;;;;;;;2.45;2.25;;;;;;;;;;5083755;28;20200;-82
2021/11/02 17:19:26;;;;;;;3.92;2.22;;;;;;;;;;5086231;28;20725;-82
2021/11/02 17:21:59;;;;;;;1.73;1.60;;;;;;;;;;5087498;28;20655;-82
2021/11/02 17:24:29;;;;;;;1.10;1.10;;;;;;;;;;5085455;28;20577;-82
2021/11/02 17:26:59;;;;;;;3.47;2.03;;;;;;;;;;5084443;28;20193;-82
2021/11/02 17:29:27;;;;;;;1.85;1.75;;;;;;;;;;5078972;28;20256;-83
2021/11/02 17:31:56;;;;;;;1.90;1.73;;;;;;;;;;5081830;28;20189;-82
2021/11/02 17:34:24;;;;;;;1.50;1.40;;;;;;;;;;5081010;28;20209;-82
2021/11/02 17:36:54;;;;;;;1.98;1.77;;;;;;;;;;5082598;28;20291;-82
2021/11/02 17:39:23;;;;;;;1.30;1.20;;;;;;;;;;5081798;28;20713;-83
2021/11/02 17:41:52;;;;;;;1.88;1.77;;;;;;;;;;5081089;28;20189;-82
2021/11/02 17:44:21;;;;;;;2.08;1.50;;;;;;;;;;5081443;28;20192;-81
2021/11/02 17:46:49;;;;;;;1.42;1.33;;;;;;;;;;5082432;28;20199;-82
2021/11/02 17:49:17;;;;;;;1.27;1.27;;;;;;;;;;5080269;28;20233;-83
2021/11/02 17:51:45;;;;;;;1.20;1.10;;;;;;;;;;5077929;28;20348;-82
2021/11/02 17:54:15;;;;;;;1.08;1.08;;;;;;;;;;5078974;28;20212;-83
2021/11/02 17:56:44;;;;;;;1.30;1.20;;;;;;;;;;5080939;28;20548;-82
2021/11/02 17:59:12;;;;;;;1.50;1.50;;;;;;;;;;5082500;28;20255;-82
2021/11/02 18:01:44;;;;;;;1.20;1.20;;;;;;;;;;5081680;28;20181;-83
2021/11/02 18:04:13;;;;;;;1.30;1.20;;;;;;;;;;5081229;28;20190;-83
2021/11/02 18:06:41;;;;;;;1.40;1.30;;;;;;;;;;5081475;28;20219;-83
2021/11/02 18:09:11;;;;;;;1.20;1.10;;;;;;;;;;5080725;28;20216;-82
2021/11/02 18:11:39;;;;;;;1.17;1.15;;;;;;;;;;5082359;28;20205;-82
2021/11/02 18:14:07;;;;;;;1.95;1.85;;;;;;;;;;5081231;28;20592;-82
2021/11/02 18:16:35;;;;;;;2.20;2.00;;;;;;;;;;5081544;28;20201;-82
2021/11/02 18:19:06;;;;;;;2.08;1.98;;;;;;;;;;5080213;28;20221;-82
2021/11/02 18:21:34;;;;;;;2.25;2.05;;;;;;;;;;5096986;28;20188;-82
2021/11/02 18:24:04;;;;;;;1.88;1.77;;;;;;;;;;5100072;28;20183;-80
2021/11/02 18:26:35;;;;;;;2.75;2.55;;;;;;;;;;5100462;28;20216;-81
2021/11/02 18:29:04;;;;;;;2.15;1.95;;;;;;;;;;5102139;28;20243;-81
2021/11/02 18:31:33;;;;;;;2.63;2.42;;;;;;;;;;5100421;28;20196;-82
2021/11/02 18:34:03;;;;;;;2.13;2.03;;;;;;;;;;5101899;28;20207;-82
2021/11/02 18:36:32;;;;;;;2.88;2.67;;;;;;;;;;5101928;28;20198;-82
2021/11/02 18:39:00;;;;;;;2.20;2.10;;;;;;;;;;5100998;28;20224;-83
2021/11/02 18:41:28;;;;;;;1.90;1.80;;;;;;;;;;5102085;28;20188;-82
2021/11/02 18:43:58;;;;;;;2.03;1.85;;;;;;;;;;5112472;28;20204;-82
2021/11/02 18:46:27;;;;;;;2.10;2.00;;;;;;;;;;5113720;28;20261;-83
2021/11/02 18:48:55;;;;;;;2.08;1.80;;;;;;;;;;5098526;22;20234;-87
2021/11/02 18:51:24;;;;;;;1.90;1.80;;;;;;;;;;5033560;28;20208;-87
2021/11/02 18:53:52;;;;;;;1.90;1.80;;;;;;;;;;5033926;28;20285;-87
2021/11/02 18:56:19;;;;;;;1.45;1.38;;;;;;;;;;5034229;28;20225;-87
2021/11/02 18:58:47;;;;;;;1.77;1.52;;;;;;;;;;5026781;28;20223;-85
2021/11/02 19:01:16;;;;;;;3.00;1.80;;;;;;;;;;5015144;28;20202;-87
2021/11/02 19:03:43;;;;;;;1.48;1.38;;;;;;;;;;5021120;28;20205;-86
2021/11/02 19:06:11;;;;;;;1.30;1.20;;;;;;;;;;5015784;28;20298;-86
2021/11/02 19:08:39;;;;;;;1.00;1.00;;;;;;;;;;5012970;28;20727;-87
2021/11/02 19:11:08;;;;;;;1.17;1.10;;;;;;;;;;5013443;28;20191;-86
2021/11/02 19:13:36;;;;;;;4.78;1.75;;;;;;;;;;5013511;28;20194;-89
2021/11/02 19:16:05;;;;;;;2.00;1.80;;;;;;;;;;5013294;28;20290;-90
2021/11/02 19:18:40;;;;;;;1.70;1.60;;;;;;;;;;5012797;28;20760;-89
2021/11/02 19:21:09;;;;;;;1.50;1.40;;;;;;;;;;5013242;28;20207;-89
2021/11/02 19:23:39;;;;;;;1.98;1.63;;;;;;;;;;5012560;28;20191;-89
2021/11/02 19:26:10;;;;;;;1.40;1.30;;;;;;;;;;5013387;28;20266;-90
2021/11/02 19:28:38;;;;;;;2.13;1.95;;;;;;;;;;5012428;28;20227;-90
2021/11/02 19:31:06;;;;;;;1.77;1.67;;;;;;;;;;5012711;28;20187;-89
2021/11/02 19:33:37;;;;;;;1.23;1.13;;;;;;;;;;5012927;28;20202;-89
2021/11/02 19:36:05;;;;;;;1.40;1.30;;;;;;;;;;5020568;28;20222;-90
2021/11/02 19:38:34;;;;;;;1.58;1.48;;;;;;;;;;5032242;28;20232;-90